首页
METAR-TAF:

METAR-TAF

机场 :

烏汶機場

乌汶叻差他尼, 泰国

纬度: 15-15N, 经度: 104-52E, 海拔: 123米

当前天气观测

该预报发布于1小时和0分钟前的02:00 UTC
风速3节,风向南转西南,在南转南东西转西南之间变化
温度 28°C
湿度 100%
气压 1005 hPa
能见度10公里或以上
少量云层高于1000英尺

METAR: VTUU 220200Z 21003KT 160V250 9999 FEW010 28/28 Q1005 NOSIG

时间: 10:00 (03:00 UTC)

预报

该预报发布于4小时和0分钟前的23:00 UTC
预报有效从22日的 00点(UTC)到 22日的 24点(UTC)
风速5节,风向
能見度: 9000
散云层高于2500英尺
成为
从 22日的 02点(UTC)到 22日的 03点(UTC)
风速5节,风向西转西南
短暂存在
从 22日的 05点(UTC)到 22日的 12点(UTC)
少量云层高于1800英尺, 积雨云.
多云层高于2500英尺
雷暴, 小雨,

TAF: VTUU 212300Z 2200/2224 18005KT 9000 SCT025 BECMG 2202/2203 25005KT TEMPO 2205/2212 -TSRA FEW018CB BKN025

超过4000个机场的气象观测和天气预报(METAR&TAF报告)。

可查询的气象台以黄色和红色小点在地图上表示。

将鼠标移到小点上方,可查看气象台名称。

然后点击查看天气观测和预报。

如需切换地图:点击带黑十字的绿色按钮放大地图;点击带横线的绿色按钮缩小地图;或者点击绿色箭头查看邻近地区的地图。


METAR-TAF: